sensor_id;sensor_type;location;lat;lon;timestamp;P1;durP1;ratioP1;P2;durP2;ratioP2
15482;SDS011;7843;50.330;7.312;2023-09-12T00:00:44;5.05;;;2.67;;
15482;SDS011;7843;50.330;7.312;2023-09-12T00:03:11;4.40;;;3.03;;
15482;SDS011;7843;50.330;7.312;2023-09-12T00:05:37;4.37;;;2.70;;
15482;SDS011;7843;50.330;7.312;2023-09-12T00:08:04;3.08;;;2.67;;
15482;SDS011;7843;50.330;7.312;2023-09-12T00:10:31;4.38;;;2.45;;
15482;SDS011;7843;50.330;7.312;2023-09-12T00:12:58;4.25;;;2.58;;
15482;SDS011;7843;50.330;7.312;2023-09-12T00:15:26;5.57;;;2.90;;
15482;SDS011;7843;50.330;7.312;2023-09-12T00:17:53;8.18;;;2.88;;
15482;SDS011;7843;50.330;7.312;2023-09-12T00:20:20;5.57;;;2.72;;
15482;SDS011;7843;50.330;7.312;2023-09-12T00:22:47;5.55;;;2.60;;
15482;SDS011;7843;50.330;7.312;2023-09-12T00:25:13;3.97;;;2.60;;
15482;SDS011;7843;50.330;7.312;2023-09-12T00:27:40;4.88;;;2.92;;
15482;SDS011;7843;50.330;7.312;2023-09-12T00:30:07;6.55;;;2.85;;
15482;SDS011;7843;50.330;7.312;2023-09-12T00:32:34;10.50;;;3.33;;
15482;SDS011;7843;50.330;7.312;2023-09-12T00:35:00;9.95;;;3.50;;
15482;SDS011;7843;50.330;7.312;2023-09-12T00:37:27;5.35;;;3.97;;
15482;SDS011;7843;50.330;7.312;2023-09-12T00:39:54;7.70;;;3.97;;
15482;SDS011;7843;50.330;7.312;2023-09-12T00:42:20;6.00;;;3.17;;
15482;SDS011;7843;50.330;7.312;2023-09-12T00:44:47;8.15;;;3.95;;
15482;SDS011;7843;50.330;7.312;2023-09-12T00:47:14;5.30;;;3.53;;
15482;SDS011;7843;50.330;7.312;2023-09-12T00:49:41;9.85;;;3.85;;
15482;SDS011;7843;50.330;7.312;2023-09-12T00:52:09;10.75;;;4.20;;
15482;SDS011;7843;50.330;7.312;2023-09-12T00:54:37;6.80;;;3.90;;
15482;SDS011;7843;50.330;7.312;2023-09-12T00:57:04;10.97;;;4.60;;
15482;SDS011;7843;50.330;7.312;2023-09-12T00:59:30;13.35;;;5.20;;
15482;SDS011;7843;50.330;7.312;2023-09-12T01:01:58;13.32;;;5.32;;
15482;SDS011;7843;50.330;7.312;2023-09-12T01:04:26;8.50;;;4.45;;
15482;SDS011;7843;50.330;7.312;2023-09-12T01:06:57;9.52;;;4.75;;
15482;SDS011;7843;50.330;7.312;2023-09-12T01:09:24;10.45;;;5.28;;
15482;SDS011;7843;50.330;7.312;2023-09-12T01:11:51;11.13;;;4.50;;
15482;SDS011;7843;50.330;7.312;2023-09-12T01:14:17;11.38;;;4.72;;
15482;SDS011;7843;50.330;7.312;2023-09-12T01:16:44;11.23;;;4.65;;
15482;SDS011;7843;50.330;7.312;2023-09-12T01:19:11;6.93;;;4.15;;
15482;SDS011;7843;50.330;7.312;2023-09-12T01:21:46;8.98;;;4.47;;
15482;SDS011;7843;50.330;7.312;2023-09-12T01:27:46;12.17;;;4.77;;
15482;SDS011;7843;50.330;7.312;2023-09-12T01:30:17;9.13;;;4.63;;
15482;SDS011;7843;50.330;7.312;2023-09-12T01:32:46;6.68;;;4.40;;
15482;SDS011;7843;50.330;7.312;2023-09-12T01:35:14;6.97;;;4.35;;
15482;SDS011;7843;50.330;7.312;2023-09-12T01:37:41;8.77;;;4.65;;
15482;SDS011;7843;50.330;7.312;2023-09-12T01:40:08;7.65;;;4.80;;
15482;SDS011;7843;50.330;7.312;2023-09-12T01:42:36;12.10;;;5.20;;
15482;SDS011;7843;50.330;7.312;2023-09-12T01:45:06;6.68;;;4.63;;
15482;SDS011;7843;50.330;7.312;2023-09-12T01:47:36;9.00;;;4.72;;
15482;SDS011;7843;50.330;7.312;2023-09-12T01:50:05;6.93;;;4.65;;
15482;SDS011;7843;50.330;7.312;2023-09-12T01:52:34;7.90;;;4.37;;
15482;SDS011;7843;50.330;7.312;2023-09-12T01:55:02;8.73;;;4.28;;
15482;SDS011;7843;50.330;7.312;2023-09-12T01:57:29;9.05;;;4.47;;
15482;SDS011;7843;50.330;7.312;2023-09-12T01:59:57;11.48;;;4.18;;
15482;SDS011;7843;50.330;7.312;2023-09-12T02:02:24;8.65;;;4.47;;
15482;SDS011;7843;50.330;7.312;2023-09-12T02:04:52;8.60;;;4.27;;
15482;SDS011;7843;50.330;7.312;2023-09-12T02:07:39;9.05;;;3.95;;
15482;SDS011;7843;50.330;7.312;2023-09-12T02:10:07;7.25;;;4.07;;
15482;SDS011;7843;50.330;7.312;2023-09-12T02:12:36;10.00;;;4.25;;
15482;SDS011;7843;50.330;7.312;2023-09-12T02:15:03;5.50;;;3.70;;
15482;SDS011;7843;50.330;7.312;2023-09-12T02:17:30;9.93;;;4.00;;
15482;SDS011;7843;50.330;7.312;2023-09-12T02:19:57;9.70;;;4.00;;
15482;SDS011;7843;50.330;7.312;2023-09-12T02:22:23;11.52;;;4.50;;
15482;SDS011;7843;50.330;7.312;2023-09-12T02:24:50;6.45;;;4.07;;
15482;SDS011;7843;50.330;7.312;2023-09-12T02:27:17;6.60;;;3.92;;
15482;SDS011;7843;50.330;7.312;2023-09-12T02:29:44;7.47;;;4.03;;
15482;SDS011;7843;50.330;7.312;2023-09-12T02:32:11;6.23;;;3.83;;
15482;SDS011;7843;50.330;7.312;2023-09-12T02:34:37;7.05;;;3.47;;
15482;SDS011;7843;50.330;7.312;2023-09-12T02:37:04;5.90;;;3.70;;
15482;SDS011;7843;50.330;7.312;2023-09-12T02:39:31;8.00;;;3.83;;
15482;SDS011;7843;50.330;7.312;2023-09-12T02:41:58;8.75;;;3.63;;
15482;SDS011;7843;50.330;7.312;2023-09-12T02:44:24;9.52;;;4.45;;
15482;SDS011;7843;50.330;7.312;2023-09-12T02:46:51;8.50;;;3.77;;
15482;SDS011;7843;50.330;7.312;2023-09-12T02:49:18;6.93;;;4.68;;
15482;SDS011;7843;50.330;7.312;2023-09-12T02:51:45;10.85;;;4.43;;
15482;SDS011;7843;50.330;7.312;2023-09-12T02:54:11;6.95;;;3.70;;
15482;SDS011;7843;50.330;7.312;2023-09-12T02:56:38;9.25;;;4.78;;
15482;SDS011;7843;50.330;7.312;2023-09-12T02:59:05;8.50;;;4.50;;
15482;SDS011;7843;50.330;7.312;2023-09-12T03:01:32;8.25;;;4.05;;
15482;SDS011;7843;50.330;7.312;2023-09-12T03:03:58;10.03;;;4.70;;
15482;SDS011;7843;50.330;7.312;2023-09-12T03:06:25;10.85;;;4.22;;
15482;SDS011;7843;50.330;7.312;2023-09-12T03:08:52;8.45;;;4.80;;
15482;SDS011;7843;50.330;7.312;2023-09-12T03:11:19;7.32;;;4.50;;
15482;SDS011;7843;50.330;7.312;2023-09-12T03:13:45;11.55;;;4.55;;
15482;SDS011;7843;50.330;7.312;2023-09-12T03:16:13;7.50;;;4.20;;
15482;SDS011;7843;50.330;7.312;2023-09-12T03:18:40;10.15;;;5.03;;
15482;SDS011;7843;50.330;7.312;2023-09-12T03:21:07;8.07;;;4.25;;
15482;SDS011;7843;50.330;7.312;2023-09-12T03:23:34;7.97;;;4.40;;
15482;SDS011;7843;50.330;7.312;2023-09-12T03:26:03;10.35;;;4.45;;
15482;SDS011;7843;50.330;7.312;2023-09-12T03:28:31;8.00;;;4.37;;
15482;SDS011;7843;50.330;7.312;2023-09-12T03:31:09;6.35;;;3.85;;
15482;SDS011;7843;50.330;7.312;2023-09-12T03:33:40;6.88;;;4.13;;
15482;SDS011;7843;50.330;7.312;2023-09-12T03:36:09;9.18;;;3.65;;
15482;SDS011;7843;50.330;7.312;2023-09-12T03:38:36;10.05;;;4.15;;
15482;SDS011;7843;50.330;7.312;2023-09-12T03:41:03;5.90;;;3.47;;
15482;SDS011;7843;50.330;7.312;2023-09-12T03:43:30;7.97;;;4.45;;
15482;SDS011;7843;50.330;7.312;2023-09-12T03:45:56;5.80;;;3.40;;
15482;SDS011;7843;50.330;7.312;2023-09-12T03:48:23;8.73;;;3.97;;
15482;SDS011;7843;50.330;7.312;2023-09-12T03:50:50;6.18;;;3.47;;
15482;SDS011;7843;50.330;7.312;2023-09-12T03:53:17;7.47;;;4.15;;
15482;SDS011;7843;50.330;7.312;2023-09-12T03:55:44;6.38;;;3.58;;
15482;SDS011;7843;50.330;7.312;2023-09-12T03:58:11;10.80;;;3.80;;
15482;SDS011;7843;50.330;7.312;2023-09-12T04:00:38;9.30;;;4.00;;
15482;SDS011;7843;50.330;7.312;2023-09-12T04:03:04;5.47;;;2.95;;
15482;SDS011;7843;50.330;7.312;2023-09-12T04:05:31;5.15;;;3.08;;
15482;SDS011;7843;50.330;7.312;2023-09-12T04:07:58;6.15;;;3.47;;
15482;SDS011;7843;50.330;7.312;2023-09-12T04:10:24;4.38;;;3.03;;
15482;SDS011;7843;50.330;7.312;2023-09-12T04:12:51;5.10;;;3.38;;
15482;SDS011;7843;50.330;7.312;2023-09-12T04:15:18;5.72;;;3.22;;
15482;SDS011;7843;50.330;7.312;2023-09-12T04:17:45;5.07;;;3.40;;
15482;SDS011;7843;50.330;7.312;2023-09-12T04:20:11;6.53;;;3.55;;
15482;SDS011;7843;50.330;7.312;2023-09-12T04:22:41;7.47;;;4.13;;
15482;SDS011;7843;50.330;7.312;2023-09-12T04:25:08;9.18;;;3.58;;
15482;SDS011;7843;50.330;7.312;2023-09-12T04:27:35;5.57;;;3.20;;
15482;SDS011;7843;50.330;7.312;2023-09-12T04:30:02;4.45;;;2.90;;
15482;SDS011;7843;50.330;7.312;2023-09-12T04:32:30;5.32;;;3.40;;
15482;SDS011;7843;50.330;7.312;2023-09-12T04:34:56;6.15;;;2.67;;
15482;SDS011;7843;50.330;7.312;2023-09-12T04:37:23;5.90;;;3.40;;
15482;SDS011;7843;50.330;7.312;2023-09-12T04:39:50;7.32;;;3.72;;
15482;SDS011;7843;50.330;7.312;2023-09-12T04:42:16;4.03;;;2.80;;
15482;SDS011;7843;50.330;7.312;2023-09-12T04:44:43;6.33;;;3.97;;
15482;SDS011;7843;50.330;7.312;2023-09-12T04:47:10;5.50;;;3.55;;
15482;SDS011;7843;50.330;7.312;2023-09-12T04:49:36;6.32;;;3.47;;
15482;SDS011;7843;50.330;7.312;2023-09-12T04:52:04;7.97;;;3.58;;
15482;SDS011;7843;50.330;7.312;2023-09-12T04:54:31;7.68;;;3.97;;
15482;SDS011;7843;50.330;7.312;2023-09-12T04:56:57;8.97;;;4.60;;
15482;SDS011;7843;50.330;7.312;2023-09-12T04:59:24;8.27;;;4.45;;
15482;SDS011;7843;50.330;7.312;2023-09-12T05:01:51;5.32;;;3.40;;
15482;SDS011;7843;50.330;7.312;2023-09-12T05:04:17;10.07;;;3.50;;
15482;SDS011;7843;50.330;7.312;2023-09-12T05:06:44;5.43;;;3.42;;
15482;SDS011;7843;50.330;7.312;2023-09-12T05:09:11;5.32;;;3.47;;
15482;SDS011;7843;50.330;7.312;2023-09-12T05:11:38;8.07;;;3.50;;
15482;SDS011;7843;50.330;7.312;2023-09-12T05:14:05;4.93;;;3.28;;
15482;SDS011;7843;50.330;7.312;2023-09-12T05:16:31;8.85;;;3.80;;
15482;SDS011;7843;50.330;7.312;2023-09-12T05:18:58;6.35;;;3.30;;
15482;SDS011;7843;50.330;7.312;2023-09-12T05:21:25;6.32;;;3.38;;
15482;SDS011;7843;50.330;7.312;2023-09-12T05:23:52;7.40;;;3.53;;
15482;SDS011;7843;50.330;7.312;2023-09-12T05:26:19;7.90;;;4.05;;
15482;SDS011;7843;50.330;7.312;2023-09-12T05:28:45;8.05;;;4.40;;
15482;SDS011;7843;50.330;7.312;2023-09-12T05:31:12;8.47;;;4.10;;
15482;SDS011;7843;50.330;7.312;2023-09-12T05:33:39;5.82;;;3.35;;
15482;SDS011;7843;50.330;7.312;2023-09-12T05:36:06;10.02;;;3.88;;
15482;SDS011;7843;50.330;7.312;2023-09-12T05:38:33;7.95;;;3.65;;
15482;SDS011;7843;50.330;7.312;2023-09-12T05:40:59;9.45;;;4.30;;
15482;SDS011;7843;50.330;7.312;2023-09-12T05:43:26;4.90;;;3.20;;
15482;SDS011;7843;50.330;7.312;2023-09-12T05:45:53;6.80;;;3.47;;
15482;SDS011;7843;50.330;7.312;2023-09-12T05:48:20;7.72;;;4.13;;
15482;SDS011;7843;50.330;7.312;2023-09-12T05:50:47;9.02;;;4.22;;
15482;SDS011;7843;50.330;7.312;2023-09-12T05:53:13;5.88;;;3.03;;
15482;SDS011;7843;50.330;7.312;2023-09-12T05:55:40;6.40;;;3.57;;
15482;SDS011;7843;50.330;7.312;2023-09-12T05:58:07;9.98;;;4.13;;
15482;SDS011;7843;50.330;7.312;2023-09-12T06:00:34;7.60;;;3.65;;
15482;SDS011;7843;50.330;7.312;2023-09-12T06:03:00;12.27;;;4.00;;
15482;SDS011;7843;50.330;7.312;2023-09-12T06:05:27;7.00;;;4.28;;
15482;SDS011;7843;50.330;7.312;2023-09-12T06:07:54;11.02;;;4.43;;
15482;SDS011;7843;50.330;7.312;2023-09-12T06:10:21;8.57;;;4.03;;
15482;SDS011;7843;50.330;7.312;2023-09-12T06:12:48;8.07;;;3.88;;
15482;SDS011;7843;50.330;7.312;2023-09-12T06:15:15;9.27;;;4.70;;
15482;SDS011;7843;50.330;7.312;2023-09-12T06:17:42;7.65;;;4.50;;
15482;SDS011;7843;50.330;7.312;2023-09-12T06:20:09;8.55;;;4.15;;
15482;SDS011;7843;50.330;7.312;2023-09-12T06:22:36;11.43;;;4.35;;
15482;SDS011;7843;50.330;7.312;2023-09-12T06:25:03;12.88;;;4.30;;
15482;SDS011;7843;50.330;7.312;2023-09-12T06:27:30;11.27;;;5.35;;
15482;SDS011;7843;50.330;7.312;2023-09-12T06:29:57;8.93;;;5.22;;
15482;SDS011;7843;50.330;7.312;2023-09-12T06:32:24;9.20;;;4.60;;
15482;SDS011;7843;50.330;7.312;2023-09-12T06:34:51;7.72;;;4.05;;
15482;SDS011;7843;50.330;7.312;2023-09-12T06:37:17;7.15;;;3.75;;
15482;SDS011;7843;50.330;7.312;2023-09-12T06:39:44;8.65;;;4.18;;
15482;SDS011;7843;50.330;7.312;2023-09-12T06:42:11;8.55;;;4.20;;
15482;SDS011;7843;50.330;7.312;2023-09-12T06:44:38;7.97;;;3.95;;
15482;SDS011;7843;50.330;7.312;2023-09-12T06:47:04;12.27;;;5.03;;
15482;SDS011;7843;50.330;7.312;2023-09-12T06:49:31;9.05;;;4.40;;
15482;SDS011;7843;50.330;7.312;2023-09-12T06:52:00;11.47;;;5.27;;
15482;SDS011;7843;50.330;7.312;2023-09-12T06:54:26;16.02;;;5.18;;
15482;SDS011;7843;50.330;7.312;2023-09-12T06:56:53;12.65;;;6.10;;
15482;SDS011;7843;50.330;7.312;2023-09-12T06:59:20;13.17;;;6.43;;
15482;SDS011;7843;50.330;7.312;2023-09-12T07:01:47;11.43;;;5.35;;
15482;SDS011;7843;50.330;7.312;2023-09-12T07:04:13;9.77;;;5.50;;
15482;SDS011;7843;50.330;7.312;2023-09-12T07:06:40;11.45;;;5.90;;
15482;SDS011;7843;50.330;7.312;2023-09-12T07:09:08;12.87;;;5.90;;
15482;SDS011;7843;50.330;7.312;2023-09-12T07:11:37;12.80;;;6.15;;
15482;SDS011;7843;50.330;7.312;2023-09-12T07:14:04;10.73;;;5.50;;
15482;SDS011;7843;50.330;7.312;2023-09-12T07:16:31;14.65;;;5.88;;
15482;SDS011;7843;50.330;7.312;2023-09-12T07:18:58;20.38;;;6.22;;
15482;SDS011;7843;50.330;7.312;2023-09-12T07:21:25;14.55;;;6.93;;
15482;SDS011;7843;50.330;7.312;2023-09-12T07:23:52;15.47;;;6.97;;
15482;SDS011;7843;50.330;7.312;2023-09-12T07:26:18;10.57;;;5.30;;
15482;SDS011;7843;50.330;7.312;2023-09-12T07:28:45;11.25;;;5.57;;
15482;SDS011;7843;50.330;7.312;2023-09-12T07:31:12;17.73;;;6.32;;
15482;SDS011;7843;50.330;7.312;2023-09-12T07:33:39;11.93;;;6.60;;
15482;SDS011;7843;50.330;7.312;2023-09-12T07:36:06;17.33;;;6.72;;
15482;SDS011;7843;50.330;7.312;2023-09-12T07:38:33;14.88;;;5.95;;
15482;SDS011;7843;50.330;7.312;2023-09-12T07:41:01;20.67;;;6.57;;
15482;SDS011;7843;50.330;7.312;2023-09-12T07:43:29;16.25;;;6.57;;
15482;SDS011;7843;50.330;7.312;2023-09-12T07:45:56;16.13;;;6.03;;
15482;SDS011;7843;50.330;7.312;2023-09-12T07:48:23;13.70;;;6.35;;
15482;SDS011;7843;50.330;7.312;2023-09-12T07:50:50;13.52;;;6.50;;
15482;SDS011;7843;50.330;7.312;2023-09-12T07:53:17;17.73;;;7.00;;
15482;SDS011;7843;50.330;7.312;2023-09-12T07:55:44;14.35;;;6.20;;
15482;SDS011;7843;50.330;7.312;2023-09-12T07:58:13;13.50;;;6.72;;
15482;SDS011;7843;50.330;7.312;2023-09-12T08:00:46;14.15;;;6.85;;
15482;SDS011;7843;50.330;7.312;2023-09-12T08:03:13;14.27;;;5.83;;
15482;SDS011;7843;50.330;7.312;2023-09-12T08:05:41;10.98;;;5.80;;
15482;SDS011;7843;50.330;7.312;2023-09-12T08:08:08;15.10;;;6.18;;
15482;SDS011;7843;50.330;7.312;2023-09-12T08:10:35;11.35;;;6.03;;
15482;SDS011;7843;50.330;7.312;2023-09-12T08:13:01;11.05;;;6.20;;
15482;SDS011;7843;50.330;7.312;2023-09-12T08:15:28;17.58;;;6.97;;
15482;SDS011;7843;50.330;7.312;2023-09-12T08:17:55;12.15;;;6.35;;
15482;SDS011;7843;50.330;7.312;2023-09-12T08:20:21;16.58;;;6.70;;
15482;SDS011;7843;50.330;7.312;2023-09-12T08:22:48;13.70;;;6.88;;
15482;SDS011;7843;50.330;7.312;2023-09-12T08:25:15;15.80;;;7.15;;
15482;SDS011;7843;50.330;7.312;2023-09-12T08:27:42;14.20;;;5.88;;
15482;SDS011;7843;50.330;7.312;2023-09-12T08:30:10;13.52;;;6.55;;
15482;SDS011;7843;50.330;7.312;2023-09-12T08:32:39;19.50;;;6.30;;
15482;SDS011;7843;50.330;7.312;2023-09-12T08:35:12;13.17;;;6.20;;
15482;SDS011;7843;50.330;7.312;2023-09-12T08:37:40;15.48;;;6.13;;
15482;SDS011;7843;50.330;7.312;2023-09-12T08:40:08;13.93;;;6.93;;
15482;SDS011;7843;50.330;7.312;2023-09-12T08:42:38;12.25;;;5.75;;
15482;SDS011;7843;50.330;7.312;2023-09-12T08:45:13;13.63;;;5.93;;
15482;SDS011;7843;50.330;7.312;2023-09-12T08:47:41;12.63;;;6.18;;
15482;SDS011;7843;50.330;7.312;2023-09-12T08:50:13;12.25;;;6.43;;
15482;SDS011;7843;50.330;7.312;2023-09-12T08:52:42;17.02;;;6.15;;
15482;SDS011;7843;50.330;7.312;2023-09-12T08:55:17;14.63;;;6.40;;
15482;SDS011;7843;50.330;7.312;2023-09-12T08:57:44;12.82;;;6.20;;
15482;SDS011;7843;50.330;7.312;2023-09-12T09:00:14;11.93;;;6.30;;
15482;SDS011;7843;50.330;7.312;2023-09-12T09:02:42;12.90;;;6.10;;
15482;SDS011;7843;50.330;7.312;2023-09-12T09:05:10;13.07;;;5.97;;
15482;SDS011;7843;50.330;7.312;2023-09-12T09:07:38;10.65;;;4.82;;
15482;SDS011;7843;50.330;7.312;2023-09-12T09:10:06;11.20;;;5.70;;
15482;SDS011;7843;50.330;7.312;2023-09-12T09:12:34;17.60;;;6.63;;
15482;SDS011;7843;50.330;7.312;2023-09-12T09:15:20;14.75;;;5.90;;
15482;SDS011;7843;50.330;7.312;2023-09-12T09:17:54;13.25;;;5.65;;
15482;SDS011;7843;50.330;7.312;2023-09-12T09:22:56;10.38;;;4.28;;
15482;SDS011;7843;50.330;7.312;2023-09-12T09:25:23;11.63;;;5.15;;
15482;SDS011;7843;50.330;7.312;2023-09-12T09:27:49;12.00;;;5.03;;
15482;SDS011;7843;50.330;7.312;2023-09-12T09:30:16;8.77;;;5.30;;
15482;SDS011;7843;50.330;7.312;2023-09-12T09:32:45;13.75;;;5.57;;
15482;SDS011;7843;50.330;7.312;2023-09-12T09:35:13;7.97;;;4.95;;
15482;SDS011;7843;50.330;7.312;2023-09-12T09:37:40;11.68;;;4.40;;
15482;SDS011;7843;50.330;7.312;2023-09-12T09:40:07;10.35;;;4.28;;
15482;SDS011;7843;50.330;7.312;2023-09-12T09:42:36;9.63;;;4.50;;
15482;SDS011;7843;50.330;7.312;2023-09-12T09:45:04;8.80;;;4.38;;
15482;SDS011;7843;50.330;7.312;2023-09-12T09:47:31;9.20;;;4.60;;
15482;SDS011;7843;50.330;7.312;2023-09-12T09:49:58;12.65;;;5.07;;
15482;SDS011;7843;50.330;7.312;2023-09-12T09:52:25;9.48;;;4.30;;
15482;SDS011;7843;50.330;7.312;2023-09-12T09:54:55;11.93;;;5.18;;
15482;SDS011;7843;50.330;7.312;2023-09-12T09:57:25;15.70;;;5.03;;
15482;SDS011;7843;50.330;7.312;2023-09-12T09:59:52;6.75;;;4.07;;
15482;SDS011;7843;50.330;7.312;2023-09-12T10:02:19;8.63;;;4.27;;
15482;SDS011;7843;50.330;7.312;2023-09-12T10:04:49;8.50;;;4.00;;
15482;SDS011;7843;50.330;7.312;2023-09-12T10:07:25;12.65;;;5.03;;
15482;SDS011;7843;50.330;7.312;2023-09-12T10:09:53;6.65;;;4.03;;
15482;SDS011;7843;50.330;7.312;2023-09-12T10:12:21;11.00;;;4.65;;
15482;SDS011;7843;50.330;7.312;2023-09-12T10:14:49;10.77;;;4.60;;
15482;SDS011;7843;50.330;7.312;2023-09-12T10:17:16;7.55;;;4.60;;
15482;SDS011;7843;50.330;7.312;2023-09-12T10:19:51;8.75;;;4.20;;
15482;SDS011;7843;50.330;7.312;2023-09-12T10:22:25;7.50;;;4.43;;
15482;SDS011;7843;50.330;7.312;2023-09-12T10:24:58;8.65;;;3.47;;
15482;SDS011;7843;50.330;7.312;2023-09-12T10:27:26;9.15;;;3.83;;
15482;SDS011;7843;50.330;7.312;2023-09-12T10:29:54;6.57;;;4.18;;
15482;SDS011;7843;50.330;7.312;2023-09-12T10:32:26;7.03;;;4.20;;
15482;SDS011;7843;50.330;7.312;2023-09-12T10:34:54;10.27;;;3.80;;
15482;SDS011;7843;50.330;7.312;2023-09-12T10:37:25;8.65;;;3.83;;
15482;SDS011;7843;50.330;7.312;2023-09-12T10:39:52;6.28;;;3.40;;
15482;SDS011;7843;50.330;7.312;2023-09-12T10:42:20;6.07;;;3.78;;
15482;SDS011;7843;50.330;7.312;2023-09-12T10:44:47;8.93;;;4.33;;
15482;SDS011;7843;50.330;7.312;2023-09-12T10:47:16;7.60;;;4.10;;
15482;SDS011;7843;50.330;7.312;2023-09-12T10:49:44;12.40;;;3.77;;
15482;SDS011;7843;50.330;7.312;2023-09-12T10:52:21;6.07;;;3.85;;
15482;SDS011;7843;50.330;7.312;2023-09-12T10:54:51;10.53;;;4.30;;
15482;SDS011;7843;50.330;7.312;2023-09-12T10:57:18;5.83;;;3.47;;
15482;SDS011;7843;50.330;7.312;2023-09-12T11:05:02;8.85;;;3.75;;
15482;SDS011;7843;50.330;7.312;2023-09-12T11:07:31;7.57;;;4.38;;
15482;SDS011;7843;50.330;7.312;2023-09-12T11:12:45;8.27;;;4.25;;
15482;SDS011;7843;50.330;7.312;2023-09-12T11:15:13;6.03;;;4.13;;
15482;SDS011;7843;50.330;7.312;2023-09-12T11:17:45;6.22;;;4.03;;
15482;SDS011;7843;50.330;7.312;2023-09-12T11:20:13;10.75;;;4.95;;
15482;SDS011;7843;50.330;7.312;2023-09-12T11:22:44;12.02;;;5.03;;
15482;SDS011;7843;50.330;7.312;2023-09-12T11:25:22;6.65;;;4.57;;
15482;SDS011;7843;50.330;7.312;2023-09-12T11:30:22;12.00;;;4.55;;
15482;SDS011;7843;50.330;7.312;2023-09-12T11:32:56;8.93;;;4.90;;
15482;SDS011;7843;50.330;7.312;2023-09-12T11:35:29;9.75;;;5.10;;
15482;SDS011;7843;50.330;7.312;2023-09-12T11:38:01;8.27;;;4.90;;
15482;SDS011;7843;50.330;7.312;2023-09-12T11:42:59;7.07;;;4.53;;
15482;SDS011;7843;50.330;7.312;2023-09-12T11:45:26;8.63;;;4.88;;
15482;SDS011;7843;50.330;7.312;2023-09-12T11:47:54;8.52;;;4.97;;
15482;SDS011;7843;50.330;7.312;2023-09-12T11:50:33;9.95;;;5.25;;
15482;SDS011;7843;50.330;7.312;2023-09-12T11:53:06;12.23;;;5.10;;
15482;SDS011;7843;50.330;7.312;2023-09-12T11:55:45;11.00;;;4.97;;
15482;SDS011;7843;50.330;7.312;2023-09-12T11:58:14;8.45;;;4.43;;
15482;SDS011;7843;50.330;7.312;2023-09-12T12:00:49;9.50;;;5.35;;
15482;SDS011;7843;50.330;7.312;2023-09-12T12:03:18;8.40;;;4.38;;
15482;SDS011;7843;50.330;7.312;2023-09-12T12:05:48;7.75;;;4.85;;
15482;SDS011;7843;50.330;7.312;2023-09-12T12:08:16;12.57;;;4.78;;
15482;SDS011;7843;50.330;7.312;2023-09-12T12:10:50;8.47;;;4.30;;
15482;SDS011;7843;50.330;7.312;2023-09-12T12:13:17;10.43;;;4.00;;
15482;SDS011;7843;50.330;7.312;2023-09-12T12:15:45;10.57;;;4.68;;
15482;SDS011;7843;50.330;7.312;2023-09-12T12:18:13;6.77;;;4.50;;
15482;SDS011;7843;50.330;7.312;2023-09-12T12:20:40;10.18;;;4.65;;
15482;SDS011;7843;50.330;7.312;2023-09-12T12:23:06;9.80;;;4.43;;
15482;SDS011;7843;50.330;7.312;2023-09-12T12:25:34;5.18;;;3.83;;
15482;SDS011;7843;50.330;7.312;2023-09-12T12:28:02;15.00;;;4.27;;
15482;SDS011;7843;50.330;7.312;2023-09-12T12:30:33;7.97;;;3.80;;
15482;SDS011;7843;50.330;7.312;2023-09-12T12:33:01;8.65;;;4.95;;
15482;SDS011;7843;50.330;7.312;2023-09-12T12:35:33;10.10;;;4.70;;
15482;SDS011;7843;50.330;7.312;2023-09-12T12:37:59;9.55;;;4.78;;
15482;SDS011;7843;50.330;7.312;2023-09-12T12:40:30;8.20;;;4.65;;
15482;SDS011;7843;50.330;7.312;2023-09-12T12:43:04;7.40;;;4.80;;
15482;SDS011;7843;50.330;7.312;2023-09-12T12:45:30;6.25;;;3.33;;
15482;SDS011;7843;50.330;7.312;2023-09-12T12:47:58;7.00;;;4.50;;
15482;SDS011;7843;50.330;7.312;2023-09-12T12:50:26;9.43;;;4.40;;
15482;SDS011;7843;50.330;7.312;2023-09-12T12:52:52;6.32;;;3.92;;
15482;SDS011;7843;50.330;7.312;2023-09-12T12:55:20;6.28;;;4.50;;
15482;SDS011;7843;50.330;7.312;2023-09-12T12:57:48;8.70;;;4.72;;
15482;SDS011;7843;50.330;7.312;2023-09-12T13:00:15;9.65;;;4.60;;
15482;SDS011;7843;50.330;7.312;2023-09-12T13:02:44;10.80;;;5.40;;
15482;SDS011;7843;50.330;7.312;2023-09-12T13:07:50;6.70;;;5.10;;
15482;SDS011;7843;50.330;7.312;2023-09-12T13:10:17;7.30;;;5.13;;
15482;SDS011;7843;50.330;7.312;2023-09-12T13:12:45;8.70;;;5.15;;
15482;SDS011;7843;50.330;7.312;2023-09-12T13:15:14;9.38;;;5.10;;
15482;SDS011;7843;50.330;7.312;2023-09-12T13:17:42;8.70;;;4.90;;
15482;SDS011;7843;50.330;7.312;2023-09-12T13:20:09;6.93;;;4.97;;
15482;SDS011;7843;50.330;7.312;2023-09-12T13:22:37;7.10;;;4.97;;
15482;SDS011;7843;50.330;7.312;2023-09-12T13:25:04;7.65;;;4.80;;
15482;SDS011;7843;50.330;7.312;2023-09-12T13:27:32;8.93;;;5.20;;
15482;SDS011;7843;50.330;7.312;2023-09-12T13:29:59;9.40;;;5.10;;
15482;SDS011;7843;50.330;7.312;2023-09-12T13:32:26;6.60;;;4.85;;
15482;SDS011;7843;50.330;7.312;2023-09-12T13:34:53;7.53;;;5.55;;
15482;SDS011;7843;50.330;7.312;2023-09-12T13:37:20;6.90;;;4.85;;
15482;SDS011;7843;50.330;7.312;2023-09-12T13:39:47;5.88;;;5.05;;
15482;SDS011;7843;50.330;7.312;2023-09-12T13:42:16;8.93;;;5.35;;
15482;SDS011;7843;50.330;7.312;2023-09-12T13:44:49;10.77;;;5.47;;
15482;SDS011;7843;50.330;7.312;2023-09-12T13:47:16;7.10;;;5.18;;
15482;SDS011;7843;50.330;7.312;2023-09-12T13:49:49;9.48;;;5.90;;
15482;SDS011;7843;50.330;7.312;2023-09-12T13:52:19;8.37;;;5.07;;
15482;SDS011;7843;50.330;7.312;2023-09-12T13:54:47;7.18;;;5.22;;
15482;SDS011;7843;50.330;7.312;2023-09-12T13:57:15;8.47;;;5.57;;
15482;SDS011;7843;50.330;7.312;2023-09-12T13:59:42;7.78;;;4.95;;
15482;SDS011;7843;50.330;7.312;2023-09-12T14:02:11;6.85;;;4.97;;
15482;SDS011;7843;50.330;7.312;2023-09-12T14:04:38;10.25;;;5.15;;
15482;SDS011;7843;50.330;7.312;2023-09-12T14:07:07;9.53;;;6.20;;
15482;SDS011;7843;50.330;7.312;2023-09-12T14:09:33;10.63;;;5.20;;
15482;SDS011;7843;50.330;7.312;2023-09-12T14:12:00;6.77;;;5.07;;
15482;SDS011;7843;50.330;7.312;2023-09-12T14:14:27;8.02;;;5.03;;
15482;SDS011;7843;50.330;7.312;2023-09-12T14:16:54;6.83;;;5.00;;
15482;SDS011;7843;50.330;7.312;2023-09-12T14:19:20;8.07;;;5.03;;
15482;SDS011;7843;50.330;7.312;2023-09-12T14:21:48;5.78;;;4.43;;
15482;SDS011;7843;50.330;7.312;2023-09-12T14:24:15;6.72;;;4.30;;
15482;SDS011;7843;50.330;7.312;2023-09-12T14:26:42;8.70;;;4.37;;
15482;SDS011;7843;50.330;7.312;2023-09-12T14:29:08;7.40;;;4.65;;
15482;SDS011;7843;50.330;7.312;2023-09-12T14:31:37;9.02;;;4.07;;
15482;SDS011;7843;50.330;7.312;2023-09-12T14:34:04;5.95;;;3.72;;
15482;SDS011;7843;50.330;7.312;2023-09-12T14:36:32;8.00;;;3.42;;
15482;SDS011;7843;50.330;7.312;2023-09-12T14:38:59;5.88;;;3.17;;
15482;SDS011;7843;50.330;7.312;2023-09-12T14:41:25;5.97;;;3.28;;
15482;SDS011;7843;50.330;7.312;2023-09-12T14:43:52;5.93;;;3.10;;
15482;SDS011;7843;50.330;7.312;2023-09-12T14:46:19;6.05;;;3.70;;
15482;SDS011;7843;50.330;7.312;2023-09-12T14:48:46;8.80;;;3.53;;
15482;SDS011;7843;50.330;7.312;2023-09-12T14:51:20;4.82;;;2.90;;
15482;SDS011;7843;50.330;7.312;2023-09-12T14:53:53;5.93;;;3.28;;
15482;SDS011;7843;50.330;7.312;2023-09-12T14:56:20;3.95;;;2.70;;
15482;SDS011;7843;50.330;7.312;2023-09-12T14:58:47;6.32;;;2.92;;
15482;SDS011;7843;50.330;7.312;2023-09-12T15:01:13;7.23;;;2.97;;
15482;SDS011;7843;50.330;7.312;2023-09-12T15:03:40;5.05;;;3.05;;
15482;SDS011;7843;50.330;7.312;2023-09-12T15:06:07;5.40;;;2.63;;
15482;SDS011;7843;50.330;7.312;2023-09-12T15:08:34;3.78;;;2.70;;
15482;SDS011;7843;50.330;7.312;2023-09-12T15:11:02;7.18;;;2.65;;
15482;SDS011;7843;50.330;7.312;2023-09-12T15:13:30;5.13;;;3.10;;
15482;SDS011;7843;50.330;7.312;2023-09-12T15:15:56;3.53;;;2.70;;
15482;SDS011;7843;50.330;7.312;2023-09-12T15:18:23;5.10;;;2.67;;
15482;SDS011;7843;50.330;7.312;2023-09-12T15:20:51;5.43;;;3.03;;
15482;SDS011;7843;50.330;7.312;2023-09-12T15:23:19;5.55;;;3.03;;